BVX208A EGKK-EINN
Flight info
| Callsign | BVX208A |
|---|---|
| Flight time | N/A |
| Altitude | 38000 |
| Route | IMVUR N63 SAM N19 ADKIK DCT MOPAT DCT KURUM KURUM2E |
| Aircraft | B738/M-SDE2E3FGHIRWXY/LB1 |
Departure
| Time | N/A |
|---|---|
| Airport | London Gatwick Airport (EGKK) |
Arrival
| Time | 2026-04-30 17:56 |
|---|---|
| Airport | Shannon Airport (EINN) |
| Time | Latitude | Longitude | Altitude | Speed | Heading |
|---|---|---|---|---|---|
| 2026-04-30 17:39 | 52.00189 | -8.16580 | 15964 ft | 352 kts | 303° |
| 2026-04-30 17:41 | 52.11669 | -8.41691 | 13371 ft | 342 kts | 303° |
| 2026-04-30 17:42 | 52.14481 | -8.47877 | 12715 ft | 337 kts | 303° |
| 2026-04-30 17:42 | 52.18635 | -8.57046 | 11769 ft | 332 kts | 303° |
| 2026-04-30 17:43 | 52.21339 | -8.63028 | 11119 ft | 321 kts | 302° |
| 2026-04-30 17:44 | 52.25387 | -8.71232 | 10229 ft | 302 kts | 308° |
| 2026-04-30 17:44 | 52.29499 | -8.78637 | 9354 ft | 286 kts | 308° |
| 2026-04-30 17:46 | 52.36291 | -8.91103 | 7986 ft | 292 kts | 308° |
| 2026-04-30 17:47 | 52.41335 | -9.00422 | 6935 ft | 258 kts | 309° |
| 2026-04-30 17:48 | 52.45913 | -9.08925 | 6097 ft | 227 kts | 309° |
| 2026-04-30 17:48 | 52.49340 | -9.13888 | 5414 ft | 210 kts | 322° |
| 2026-04-30 17:49 | 52.53761 | -9.19505 | 4433 ft | 199 kts | 322° |
| 2026-04-30 17:50 | 52.58197 | -9.17660 | 3728 ft | 190 kts | 47° |
| 2026-04-30 17:51 | 52.60433 | -9.13330 | 3085 ft | 154 kts | 57° |
| 2026-04-30 17:52 | 52.62364 | -9.09200 | 2498 ft | 151 kts | 57° |
| 2026-04-30 17:53 | 52.65494 | -9.02510 | 1497 ft | 144 kts | 58° |
| 2026-04-30 17:54 | 52.67929 | -8.97312 | 608 ft | 138 kts | 52° |
| 2026-04-30 17:55 | 52.70181 | -8.92520 | 17 ft | 85 kts | 52° |
| 2026-04-30 17:56 | 52.70732 | -8.91351 | 8 ft | 18 kts | 51° |
| 2026-04-30 17:57 | 52.70595 | -8.91122 | 8 ft | 13 kts | 168° |
| 2026-04-30 17:58 | 52.70335 | -8.91048 | 9 ft | 13 kts | 171° |
| 2026-04-30 17:59 | 52.70009 | -8.91113 | 12 ft | 12 kts | 198° |
| 2026-04-30 18:00 | 52.69618 | -8.91329 | 16 ft | 22 kts | 198° |
| 2026-04-30 18:00 | 52.69259 | -8.91533 | 18 ft | 10 kts | 217° |
| 2026-04-30 18:01 | 52.69317 | -8.91721 | 19 ft | 10 kts | 317° |
| 2026-04-30 18:02 | 52.69444 | -8.91915 | 21 ft | 8 kts | 285° |
| 2026-04-30 18:02 | 52.69470 | -8.92094 | 20 ft | 6 kts | 284° |
| 2026-04-30 18:03 | 52.69446 | -8.92164 | 20 ft | 6 kts | 188° |
| 2026-04-30 18:04 | 52.69378 | -8.92175 | 21 ft | 1 kts | 186° |
| 2026-04-30 18:05 | 52.69370 | -8.92176 | 21 ft | 0 kts | 186° |